Time;durP1;ratioP1;P1;durP2;ratioP2;P2;SDS_P1;SDS_P2;PMS_P1;PMS_P2;Temp;Humidity;BMP_temperature;BMP_pressure;BME280_temperature;BME280_humidity;BME280_pressure;Samples;Min_cycle;Max_cycle;Signal;HPM_P1;HPM_P2
2023/11/05 00:00:50;;;;;;;0.88;0.40;;;;;;;-145.87;100.00;54973.53;2090233;28;20474;-56
2023/11/05 00:01:51;;;;;;;0.47;0.30;;;;;;;-145.87;100.00;54973.53;2090527;28;20057;-56
2023/11/05 00:02:53;;;;;;;0.68;0.45;;;;;;;-145.87;100.00;54973.53;2090416;28;20052;-56
2023/11/05 00:03:54;;;;;;;0.38;0.30;;;;;;;-145.87;100.00;54973.53;2090093;28;20064;-57
2023/11/05 00:04:55;;;;;;;1.08;0.60;;;;;;;-145.87;100.00;54973.53;2090194;28;20485;-56
2023/11/05 00:05:56;;;;;;;1.17;0.40;;;;;;;-145.87;100.00;54973.53;2090194;28;20057;-57
2023/11/05 00:06:57;;;;;;;0.88;0.43;;;;;;;-145.87;100.00;54973.53;2089812;28;20068;-56
2023/11/05 00:07:58;;;;;;;0.95;0.40;;;;;;;-145.87;100.00;54973.53;2089652;28;20049;-56
2023/11/05 00:08:59;;;;;;;0.55;0.28;;;;;;;-145.87;100.00;54973.53;2090029;28;20045;-56
2023/11/05 00:10:00;;;;;;;0.20;0.20;;;;;;;-145.87;100.00;54973.53;2090273;28;20068;-57
2023/11/05 00:11:01;;;;;;;0.73;0.35;;;;;;;-145.87;100.00;54973.53;2090133;28;20049;-57
2023/11/05 00:12:03;;;;;;;1.13;0.20;;;;;;;-145.87;100.00;54973.53;2090319;28;20049;-57
2023/11/05 00:13:04;;;;;;;0.25;0.20;;;;;;;-145.87;100.00;54973.53;2090302;28;20067;-56
2023/11/05 00:14:05;;;;;;;1.27;0.28;;;;;;;-145.87;100.00;54973.53;2090513;28;20493;-56
2023/11/05 00:15:07;;;;;;;5.00;0.40;;;;;;;-145.87;100.00;54973.53;2090092;28;20060;-57
2023/11/05 00:16:08;;;;;;;0.30;0.15;;;;;;;-145.87;100.00;54973.53;2089858;28;20080;-57
2023/11/05 00:17:09;;;;;;;0.22;0.20;;;;;;;-145.87;100.00;54973.53;2090126;28;20089;-56
2023/11/05 00:18:10;;;;;;;0.50;0.30;;;;;;;-145.87;100.00;54973.53;2089915;28;20041;-57
2023/11/05 00:19:11;;;;;;;1.67;0.40;;;;;;;-145.87;100.00;54973.53;2089624;28;20068;-57
2023/11/05 00:20:14;;;;;;;0.40;0.15;;;;;;;-145.87;100.00;54973.53;2089692;28;20474;-57
2023/11/05 00:21:15;;;;;;;0.43;0.28;;;;;;;-145.87;100.00;54973.53;2089546;28;20053;-56
2023/11/05 00:22:18;;;;;;;0.60;0.20;;;;;;;-145.87;100.00;54973.53;2089949;28;20052;-57
2023/11/05 00:23:20;;;;;;;1.45;0.30;;;;;;;-145.87;100.00;54973.53;2089803;28;20049;-56
2023/11/05 00:24:21;;;;;;;0.35;0.20;;;;;;;-145.87;100.00;54973.53;2089867;28;20068;-56
2023/11/05 00:25:22;;;;;;;1.17;0.30;;;;;;;-145.87;100.00;54973.53;2089463;28;20049;-56
2023/11/05 00:26:23;;;;;;;0.10;0.10;;;;;;;-145.87;100.00;54973.53;2089944;28;20531;-56
2023/11/05 00:27:27;;;;;;;1.05;0.32;;;;;;;-145.87;100.00;54973.53;2090106;28;20045;-56
2023/11/05 00:28:28;;;;;;;0.10;0.08;;;;;;;-145.87;100.00;54973.53;2089455;28;20056;-56
2023/11/05 00:29:30;;;;;;;0.40;0.30;;;;;;;-145.87;100.00;54973.53;2088897;28;20436;-56
2023/11/05 00:30:31;;;;;;;0.63;0.20;;;;;;;-145.87;100.00;54973.53;2090012;28;20037;-56
2023/11/05 00:31:32;;;;;;;0.40;0.20;;;;;;;-145.87;100.00;54973.53;2090127;28;20032;-57
2023/11/05 00:32:33;;;;;;;0.15;0.10;;;;;;;-145.87;100.00;54973.53;2090055;28;20060;-57
2023/11/05 00:33:34;;;;;;;0.20;0.10;;;;;;;-145.87;100.00;54973.53;2090088;28;20396;-56
2023/11/05 00:34:35;;;;;;;0.65;0.30;;;;;;;-145.87;100.00;54973.53;2090075;28;20064;-56
2023/11/05 00:35:36;;;;;;;1.15;0.50;;;;;;;-145.87;100.00;54973.53;2090044;28;20049;-56
2023/11/05 00:36:37;;;;;;;0.68;0.13;;;;;;;-145.87;100.00;54973.53;2089954;28;20041;-56
2023/11/05 00:37:39;;;;;;;0.55;0.20;;;;;;;-145.87;100.00;54973.53;2090034;28;20473;-57
2023/11/05 00:38:40;;;;;;;0.70;0.32;;;;;;;-145.87;100.00;54973.53;2089061;28;20054;-56
2023/11/05 00:39:43;;;;;;;0.60;0.10;;;;;;;-145.87;100.00;54973.53;2089530;28;20449;-57
2023/11/05 00:40:44;;;;;;;0.63;0.30;;;;;;;-145.87;100.00;54973.53;2097517;28;20055;-57
2023/11/05 00:41:45;;;;;;;0.30;0.20;;;;;;;-145.87;100.00;54973.53;2089967;28;20041;-56
2023/11/05 00:42:46;;;;;;;0.93;0.20;;;;;;;-145.87;100.00;54973.53;2089426;28;20064;-56
2023/11/05 00:43:47;;;;;;;0.17;0.10;;;;;;;-145.87;100.00;54973.53;2089502;28;20048;-56
2023/11/05 00:44:48;;;;;;;0.63;0.38;;;;;;;-145.87;100.00;54973.53;2089894;28;20048;-57
2023/11/05 00:45:49;;;;;;;0.52;0.20;;;;;;;-145.87;100.00;54973.53;2089850;28;20132;-57
2023/11/05 00:46:50;;;;;;;0.38;0.10;;;;;;;-145.87;100.00;54973.53;2089985;28;20429;-57
2023/11/05 00:47:52;;;;;;;0.20;0.13;;;;;;;-145.87;100.00;54973.53;2089915;28;20049;-56
2023/11/05 00:48:53;;;;;;;1.00;0.40;;;;;;;-145.87;100.00;54973.53;2090560;28;20053;-56
2023/11/05 00:49:56;;;;;;;1.23;0.20;;;;;;;-145.87;100.00;54973.53;2090941;28;20053;-56
2023/11/05 00:50:57;;;;;;;0.63;0.30;;;;;;;-145.87;100.00;54973.53;2091006;28;20496;-56
2023/11/05 00:51:58;;;;;;;1.25;0.63;;;;;;;-145.87;100.00;54973.53;2091413;28;20041;-57
2023/11/05 00:52:59;;;;;;;0.43;0.28;;;;;;;-145.87;100.00;54973.53;2091379;28;20051;-56
2023/11/05 00:54:00;;;;;;;0.85;0.32;;;;;;;-145.87;100.00;54973.53;2091458;28;20084;-56
2023/11/05 00:55:02;;;;;;;0.98;0.38;;;;;;;-145.87;100.00;54973.53;2091484;28;20041;-56
2023/11/05 00:56:04;;;;;;;0.82;0.25;;;;;;;-145.87;100.00;54973.53;2091454;28;20477;-56
2023/11/05 00:57:05;;;;;;;0.20;0.20;;;;;;;-145.87;100.00;54973.53;2091504;28;20393;-56
2023/11/05 00:58:06;;;;;;;1.30;0.25;;;;;;;-145.87;100.00;54973.53;2091411;28;20476;-56
2023/11/05 00:59:07;;;;;;;0.88;0.30;;;;;;;-145.87;100.00;54973.53;2090696;28;20064;-56
2023/11/05 01:00:09;;;;;;;0.60;0.20;;;;;;;-145.87;100.00;54973.53;2090935;28;20048;-56
2023/11/05 01:01:11;;;;;;;2.40;0.55;;;;;;;-145.87;100.00;54973.53;2090368;28;20056;-56
2023/11/05 01:02:12;;;;;;;1.35;0.40;;;;;;;-145.87;100.00;54973.53;2090699;28;20056;-57
2023/11/05 01:03:13;;;;;;;1.40;0.50;;;;;;;-145.87;100.00;54973.53;2091369;28;20040;-58
2023/11/05 01:04:15;;;;;;;1.60;0.55;;;;;;;-145.87;100.00;54973.53;2090542;28;20044;-57
2023/11/05 01:05:16;;;;;;;1.48;0.63;;;;;;;-145.87;100.00;54973.53;2090891;28;20064;-56
2023/11/05 01:06:17;;;;;;;3.35;0.50;;;;;;;-145.87;100.00;54973.53;2091243;28;20037;-57
2023/11/05 01:07:19;;;;;;;1.13;0.57;;;;;;;-145.87;100.00;54973.53;2091743;28;20053;-56
2023/11/05 01:08:20;;;;;;;0.93;0.35;;;;;;;-145.87;100.00;54973.53;2090209;28;20068;-57
2023/11/05 01:09:21;;;;;;;1.38;0.50;;;;;;;-145.87;100.00;54973.53;2090474;28;20463;-60
2023/11/05 01:10:22;;;;;;;0.88;0.50;;;;;;;-145.87;100.00;54973.53;2091253;28;20052;-56
2023/11/05 01:11:23;;;;;;;2.45;0.50;;;;;;;-145.87;100.00;54973.53;2091256;28;20051;-56
2023/11/05 01:12:24;;;;;;;1.40;0.43;;;;;;;-145.87;100.00;54973.53;2091420;28;20052;-57
2023/11/05 01:13:26;;;;;;;1.52;0.40;;;;;;;-145.87;100.00;54973.53;2090504;28;20535;-57
2023/11/05 01:14:27;;;;;;;0.75;0.40;;;;;;;-145.87;100.00;54973.53;2089881;28;20489;-57
2023/11/05 01:15:29;;;;;;;0.73;0.30;;;;;;;-145.87;100.00;54973.53;2090421;28;20485;-56
2023/11/05 01:16:30;;;;;;;0.90;0.40;;;;;;;-145.87;100.00;54973.53;2090041;28;20420;-56
2023/11/05 01:17:32;;;;;;;0.60;0.20;;;;;;;-145.87;100.00;54973.53;2090611;28;20048;-56
2023/11/05 01:18:33;;;;;;;1.67;0.30;;;;;;;-145.87;100.00;54973.53;2089947;28;20063;-56
2023/11/05 01:19:34;;;;;;;1.60;0.40;;;;;;;-145.87;100.00;54973.53;2090695;28;20150;-56
2023/11/05 01:20:35;;;;;;;0.85;0.30;;;;;;;-145.87;100.00;54973.53;2090806;28;20119;-56
2023/11/05 01:21:37;;;;;;;1.65;0.40;;;;;;;-145.87;100.00;54973.53;2091068;28;20053;-56
2023/11/05 01:22:39;;;;;;;1.65;0.20;;;;;;;-145.87;100.00;54973.53;2082026;28;20045;-57
2023/11/05 01:23:40;;;;;;;0.52;0.20;;;;;;;-145.87;100.00;54973.53;2082342;28;20064;-56
2023/11/05 01:24:41;;;;;;;0.50;0.30;;;;;;;-145.87;100.00;54973.53;2091085;28;20056;-56
2023/11/05 01:25:42;;;;;;;1.33;0.30;;;;;;;-145.87;100.00;54973.53;2091296;28;20496;-56
2023/11/05 01:26:43;;;;;;;0.75;0.20;;;;;;;-145.87;100.00;54973.53;2090881;28;20060;-57
2023/11/05 01:27:44;;;;;;;0.70;0.13;;;;;;;-145.87;100.00;54973.53;2090819;28;20040;-57
2023/11/05 01:28:45;;;;;;;0.10;0.10;;;;;;;-145.87;100.00;54973.53;2090622;28;20040;-57
2023/11/05 01:29:46;;;;;;;0.73;0.32;;;;;;;-145.87;100.00;54973.53;2090888;28;20056;-56
2023/11/05 01:30:48;;;;;;;0.85;0.30;;;;;;;-145.87;100.00;54973.53;2091110;28;20420;-56
2023/11/05 01:31:49;;;;;;;0.52;0.30;;;;;;;-145.87;100.00;54973.53;2091295;28;20045;-56
2023/11/05 01:32:50;;;;;;;0.55;0.20;;;;;;;-145.87;100.00;54973.53;2091081;28;20044;-56
2023/11/05 01:33:51;;;;;;;0.55;0.20;;;;;;;-145.87;100.00;54973.53;2091146;28;20048;-56
2023/11/05 01:34:52;;;;;;;0.43;0.20;;;;;;;-145.87;100.00;54973.53;2090317;28;20045;-56
2023/11/05 01:35:53;;;;;;;1.58;0.40;;;;;;;-145.87;100.00;54973.53;2090572;28;20056;-56
2023/11/05 01:36:55;;;;;;;0.38;0.20;;;;;;;-145.87;100.00;54973.53;2091178;28;20516;-56
2023/11/05 01:37:56;;;;;;;1.95;0.32;;;;;;;-145.87;100.00;54973.53;2091680;28;20045;-58
2023/11/05 01:38:57;;;;;;;1.25;0.32;;;;;;;-145.87;100.00;54973.53;2092054;28;20378;-61
2023/11/05 01:39:58;;;;;;;0.75;0.30;;;;;;;-145.87;100.00;54973.53;2090874;28;20143;-58
2023/11/05 01:41:00;;;;;;;0.43;0.20;;;;;;;-145.87;100.00;54973.53;2091652;28;20485;-58
2023/11/05 01:42:01;;;;;;;0.73;0.30;;;;;;;-145.87;100.00;54973.53;2092100;28;20068;-58
2023/11/05 01:43:02;;;;;;;1.00;0.20;;;;;;;-145.87;100.00;54973.53;2092273;28;20045;-57
2023/11/05 01:44:04;;;;;;;1.95;0.20;;;;;;;-145.87;100.00;54973.53;2091573;28;20049;-57
2023/11/05 01:45:05;;;;;;;0.88;0.30;;;;;;;-145.87;100.00;54973.53;2092399;28;20057;-57
2023/11/05 01:46:06;;;;;;;0.75;0.30;;;;;;;-145.87;100.00;54973.53;2090739;28;20045;-57
2023/11/05 01:47:09;;;;;;;0.68;0.20;;;;;;;-145.87;100.00;54973.53;2090455;28;20509;-57
2023/11/05 01:48:11;;;;;;;0.93;0.30;;;;;;;-145.87;100.00;54973.53;2090139;28;20061;-57
2023/11/05 01:49:12;;;;;;;0.32;0.30;;;;;;;-145.87;100.00;54973.53;2090794;28;20048;-57
2023/11/05 01:50:14;;;;;;;0.28;0.22;;;;;;;-145.87;100.00;54973.53;2090105;28;20052;-57
2023/11/05 01:51:15;;;;;;;0.47;0.20;;;;;;;-145.87;100.00;54973.53;2074425;28;20057;-57
2023/11/05 01:52:16;;;;;;;0.85;0.28;;;;;;;-145.87;100.00;54973.53;2081904;28;20053;-58
2023/11/05 01:53:17;;;;;;;0.85;0.30;;;;;;;-145.87;100.00;54973.53;2082059;28;20053;-56
2023/11/05 01:54:18;;;;;;;1.58;0.13;;;;;;;-145.87;100.00;54973.53;2082013;28;20065;-56
2023/11/05 01:55:21;;;;;;;0.47;0.32;;;;;;;-145.87;100.00;54973.53;2090536;28;20044;-56
2023/11/05 01:56:23;;;;;;;2.55;0.30;;;;;;;-145.87;100.00;54973.53;2090372;28;20056;-56
2023/11/05 01:57:24;;;;;;;1.67;0.30;;;;;;;-145.87;100.00;54973.53;2090296;28;20060;-56
2023/11/05 01:58:26;;;;;;;0.30;0.10;;;;;;;-145.87;100.00;54973.53;2074055;28;20056;-56
2023/11/05 01:59:27;;;;;;;0.55;0.20;;;;;;;-145.87;100.00;54973.53;2065955;28;20054;-57
2023/11/05 02:00:28;;;;;;;0.50;0.20;;;;;;;-145.87;100.00;54973.53;2065055;28;20053;-56
2023/11/05 02:01:30;;;;;;;1.55;0.40;;;;;;;-145.87;100.00;54973.53;2074062;28;20050;-57
2023/11/05 02:02:31;;;;;;;0.55;0.25;;;;;;;-145.87;100.00;54973.53;2082061;28;20067;-56
2023/11/05 02:03:32;;;;;;;0.25;0.10;;;;;;;-145.87;100.00;54973.53;2073865;28;20041;-56
2023/11/05 02:04:34;;;;;;;1.38;0.30;;;;;;;-145.87;100.00;54973.53;2082176;28;20092;-56
2023/11/05 02:05:35;;;;;;;0.25;0.20;;;;;;;-145.87;100.00;54973.53;2081979;28;20045;-56
2023/11/05 02:06:37;;;;;;;0.63;0.30;;;;;;;-145.87;100.00;54973.53;2065694;28;20525;-56
2023/11/05 02:07:38;;;;;;;1.08;0.25;;;;;;;-145.87;100.00;54973.53;2073913;28;20042;-56
2023/11/05 02:08:40;;;;;;;1.05;0.30;;;;;;;-145.87;100.00;54973.53;2090271;28;20040;-56
2023/11/05 02:09:41;;;;;;;0.30;0.10;;;;;;;-145.87;100.00;54973.53;2089998;28;20056;-55
2023/11/05 02:10:42;;;;;;;0.75;0.28;;;;;;;-145.87;100.00;54973.53;2082052;28;20049;-56
2023/11/05 02:11:43;;;;;;;1.85;0.22;;;;;;;-145.87;100.00;54973.53;2065848;28;20038;-57
2023/11/05 02:12:59;;;;;;;1.20;0.20;;;;;;;-145.87;100.00;54973.53;2074156;28;20057;-54
2023/11/05 02:14:01;;;;;;;1.45;0.25;;;;;;;-145.87;100.00;54973.53;2090924;28;20055;-56
2023/11/05 02:15:03;;;;;;;0.45;0.20;;;;;;;-145.87;100.00;54973.53;2089660;28;20076;-55
2023/11/05 02:16:04;;;;;;;1.33;0.20;;;;;;;-145.87;100.00;54973.53;2090769;28;20045;-56
2023/11/05 02:17:05;;;;;;;0.47;0.20;;;;;;;-145.87;100.00;54973.53;2091074;28;20045;-57
2023/11/05 02:18:07;;;;;;;0.43;0.20;;;;;;;-145.87;100.00;54973.53;2090457;28;20512;-54
2023/11/05 02:19:08;;;;;;;0.43;0.20;;;;;;;-145.87;100.00;54973.53;2090284;28;20057;-55
2023/11/05 02:20:09;;;;;;;0.20;0.20;;;;;;;-145.87;100.00;54973.53;2090222;28;20061;-55
2023/11/05 02:21:13;;;;;;;0.10;0.10;;;;;;;-145.87;100.00;54973.53;2073647;28;20052;-56
2023/11/05 02:22:15;;;;;;;0.25;0.13;;;;;;;-145.87;100.00;54973.53;2082288;28;20053;-55
2023/11/05 02:23:17;;;;;;;1.17;0.40;;;;;;;-145.87;100.00;54973.53;2081229;28;20065;-55
2023/11/05 02:24:18;;;;;;;0.52;0.13;;;;;;;-145.87;100.00;54973.53;2073475;28;20053;-56
2023/11/05 02:25:19;;;;;;;2.63;0.20;;;;;;;-145.87;100.00;54973.53;2089250;28;20053;-55
2023/11/05 02:26:20;;;;;;;0.65;0.20;;;;;;;-145.87;100.00;54973.53;2089353;28;20516;-57
2023/11/05 02:27:25;;;;;;;0.40;0.10;;;;;;;-145.87;100.00;54973.53;2081896;28;20054;-56
2023/11/05 02:28:26;;;;;;;1.02;0.20;;;;;;;-145.87;100.00;54973.53;2082114;28;20052;-56
2023/11/05 02:29:27;;;;;;;1.42;0.20;;;;;;;-145.87;100.00;54973.53;2081971;28;20050;-57
2023/11/05 02:30:28;;;;;;;0.63;0.30;;;;;;;-145.87;100.00;54973.53;2082294;28;20060;-57
2023/11/05 02:31:29;;;;;;;0.20;0.20;;;;;;;-145.87;100.00;54973.53;2082002;28;20444;-57
2023/11/05 02:32:31;;;;;;;0.45;0.32;;;;;;;-145.87;100.00;54973.53;2090319;28;20048;-57
2023/11/05 02:33:32;;;;;;;0.65;0.20;;;;;;;-145.87;100.00;54973.53;2090299;28;20056;-57
2023/11/05 02:34:33;;;;;;;0.90;0.28;;;;;;;-145.87;100.00;54973.53;2089859;28;20509;-57
2023/11/05 02:35:34;;;;;;;1.27;0.30;;;;;;;-145.87;100.00;54973.53;2090225;28;20523;-56
2023/11/05 02:36:35;;;;;;;1.25;0.30;;;;;;;-145.87;100.00;54973.53;2090605;28;20040;-56
2023/11/05 02:37:36;;;;;;;0.50;0.20;;;;;;;-145.87;100.00;54973.53;2090030;28;20059;-55
2023/11/05 02:38:38;;;;;;;0.93;0.30;;;;;;;-145.87;100.00;54973.53;2081921;28;20046;-56
2023/11/05 02:39:39;;;;;;;1.30;0.50;;;;;;;-145.87;100.00;54973.53;2090100;28;20492;-56
2023/11/05 02:40:40;;;;;;;0.65;0.30;;;;;;;-145.87;100.00;54973.53;2090561;28;20056;-56
2023/11/05 02:41:41;;;;;;;0.38;0.30;;;;;;;-145.87;100.00;54973.53;2090683;28;20052;-56
2023/11/05 02:42:42;;;;;;;0.57;0.20;;;;;;;-145.87;100.00;54973.53;2089943;28;20041;-56
2023/11/05 02:43:44;;;;;;;0.63;0.13;;;;;;;-145.87;100.00;54973.53;2081435;28;20053;-57
2023/11/05 02:44:45;;;;;;;0.82;0.40;;;;;;;-145.87;100.00;54973.53;2090737;28;20063;-56
2023/11/05 02:45:46;;;;;;;0.38;0.10;;;;;;;-145.87;100.00;54973.53;2090110;28;20041;-57
2023/11/05 02:46:47;;;;;;;0.70;0.28;;;;;;;-145.87;100.00;54973.53;2089585;28;20060;-56
2023/11/05 02:47:48;;;;;;;0.40;0.10;;;;;;;-145.87;100.00;54973.53;2090564;28;20048;-56
2023/11/05 02:48:49;;;;;;;1.77;0.40;;;;;;;-145.87;100.00;54973.53;2090693;28;20037;-56
2023/11/05 02:49:50;;;;;;;0.88;0.28;;;;;;;-145.87;100.00;54973.53;2090533;28;20056;-56
2023/11/05 02:50:52;;;;;;;1.23;0.20;;;;;;;-145.87;100.00;54973.53;2090075;28;20044;-55
2023/11/05 02:51:53;;;;;;;0.63;0.20;;;;;;;-145.87;100.00;54973.53;2090071;28;20037;-55
2023/11/05 02:52:54;;;;;;;0.35;0.13;;;;;;;-145.87;100.00;54973.53;2090036;28;20060;-56
2023/11/05 02:53:55;;;;;;;0.73;0.22;;;;;;;-145.87;100.00;54973.53;2090693;28;20033;-55
2023/11/05 02:54:56;;;;;;;0.55;0.30;;;;;;;-145.87;100.00;54973.53;2090145;28;20058;-55
2023/11/05 02:55:57;;;;;;;2.80;0.25;;;;;;;-145.87;100.00;54973.53;2090381;28;20049;-55
2023/11/05 02:56:58;;;;;;;0.30;0.30;;;;;;;-145.87;100.00;54973.53;2090546;28;20041;-55
2023/11/05 02:58:00;;;;;;;0.88;0.30;;;;;;;-145.87;100.00;54973.53;2090538;28;20057;-57
2023/11/05 02:59:01;;;;;;;1.85;0.55;;;;;;;-145.87;100.00;54973.53;2089759;28;20053;-57
2023/11/05 03:00:04;;;;;;;1.33;0.38;;;;;;;-145.87;100.00;54973.53;2090392;28;20040;-57
2023/11/05 03:01:05;;;;;;;1.17;0.30;;;;;;;-145.87;100.00;54973.53;2089900;28;20460;-56
2023/11/05 03:02:06;;;;;;;0.35;0.20;;;;;;;-145.87;100.00;54973.53;2089768;28;20596;-55
2023/11/05 03:03:09;;;;;;;1.17;0.20;;;;;;;-145.87;100.00;54973.53;2090222;28;20048;-55
2023/11/05 03:04:10;;;;;;;1.08;0.40;;;;;;;-145.87;100.00;54973.53;2090396;28;20397;-56
2023/11/05 03:05:11;;;;;;;0.25;0.22;;;;;;;-145.87;100.00;54973.53;2089421;28;20056;-55
2023/11/05 03:06:12;;;;;;;0.75;0.30;;;;;;;-145.87;100.00;54973.53;2090014;28;20048;-55
2023/11/05 03:07:14;;;;;;;0.90;0.35;;;;;;;-145.87;100.00;54973.53;2089510;28;20060;-55
2023/11/05 03:08:15;;;;;;;0.40;0.20;;;;;;;-145.87;100.00;54973.53;2089760;28;20047;-55
2023/11/05 03:09:24;;;;;;;0.43;0.20;;;;;;;-145.87;100.00;54973.53;2090680;28;20045;-57
2023/11/05 03:10:25;;;;;;;3.85;0.50;;;;;;;-145.87;100.00;54973.53;2090550;28;20405;-57
2023/11/05 03:11:26;;;;;;;1.27;0.32;;;;;;;-145.87;100.00;54973.53;2090168;28;20044;-56
2023/11/05 03:12:27;;;;;;;2.10;0.45;;;;;;;-145.87;100.00;54973.53;2090443;28;20045;-55
2023/11/05 03:13:28;;;;;;;0.55;0.17;;;;;;;-145.87;100.00;54973.53;2089938;28;20143;-55
2023/11/05 03:14:30;;;;;;;0.35;0.20;;;;;;;-145.87;100.00;54973.53;2089833;28;20493;-55
2023/11/05 03:15:31;;;;;;;0.50;0.20;;;;;;;-145.87;100.00;54973.53;2098123;28;20487;-56
2023/11/05 03:16:32;;;;;;;0.32;0.10;;;;;;;-145.87;100.00;54973.53;2089865;28;20052;-55
2023/11/05 03:17:36;;;;;;;1.65;0.30;;;;;;;-145.87;100.00;54973.53;2089709;28;20043;-55
2023/11/05 03:18:39;;;;;;;0.98;0.15;;;;;;;-145.87;100.00;54973.53;2090413;28;20056;-56
2023/11/05 03:19:40;;;;;;;0.40;0.20;;;;;;;-145.87;100.00;54973.53;2090113;28;20433;-56
2023/11/05 03:20:41;;;;;;;1.13;0.30;;;;;;;-145.87;100.00;54973.53;2081368;28;20037;-57
2023/11/05 03:21:42;;;;;;;0.40;0.20;;;;;;;-145.87;100.00;54973.53;2089927;28;20067;-54
2023/11/05 03:22:44;;;;;;;1.23;0.20;;;;;;;-145.87;100.00;54973.53;2097990;28;20059;-57
2023/11/05 03:23:45;;;;;;;0.77;0.20;;;;;;;-145.87;100.00;54973.53;2089326;28;20057;-56
2023/11/05 03:24:48;;;;;;;1.25;0.20;;;;;;;-145.87;100.00;54973.53;2089708;28;20048;-55
2023/11/05 03:25:49;;;;;;;0.95;0.30;;;;;;;-145.87;100.00;54973.53;2089880;28;20053;-57
2023/11/05 03:26:50;;;;;;;0.60;0.20;;;;;;;-145.87;100.00;54973.53;2081551;28;20048;-56
2023/11/05 03:27:51;;;;;;;0.20;0.10;;;;;;;-145.87;100.00;54973.53;2089556;28;20477;-56
2023/11/05 03:28:53;;;;;;;0.73;0.22;;;;;;;-145.87;100.00;54973.53;2089690;28;20056;-57
2023/11/05 03:29:54;;;;;;;0.50;0.20;;;;;;;-145.87;100.00;54973.53;2090345;28;20057;-55
2023/11/05 03:30:55;;;;;;;0.30;0.20;;;;;;;-145.87;100.00;54973.53;2090301;28;20393;-57
2023/11/05 03:31:56;;;;;;;0.55;0.20;;;;;;;-145.87;100.00;54973.53;2089960;28;20061;-55
2023/11/05 03:32:58;;;;;;;0.38;0.17;;;;;;;-145.87;100.00;54973.53;2081543;28;20045;-56
2023/11/05 03:33:59;;;;;;;0.50;0.20;;;;;;;-145.87;100.00;54973.53;2081471;28;20041;-55
2023/11/05 03:35:03;;;;;;;0.57;0.22;;;;;;;-145.87;100.00;54973.53;2089819;28;20466;-56
2023/11/05 03:36:05;;;;;;;0.32;0.10;;;;;;;-145.87;100.00;54973.53;2090190;28;20064;-55
2023/11/05 03:37:06;;;;;;;0.73;0.25;;;;;;;-145.87;100.00;54973.53;2089743;28;20048;-56
2023/11/05 03:38:07;;;;;;;0.57;0.28;;;;;;;-145.87;100.00;54973.53;2089781;28;20057;-55
2023/11/05 03:39:08;;;;;;;0.75;0.20;;;;;;;-145.87;100.00;54973.53;2089326;28;20496;-55
2023/11/05 03:40:10;;;;;;;0.30;0.15;;;;;;;-145.87;100.00;54973.53;2089299;28;20064;-57
2023/11/05 03:41:11;;;;;;;1.17;0.10;;;;;;;-145.87;100.00;54973.53;2090423;28;20048;-57
2023/11/05 03:42:12;;;;;;;0.47;0.30;;;;;;;-145.87;100.00;54973.53;2090246;28;20097;-57
2023/11/05 03:43:13;;;;;;;1.60;0.30;;;;;;;-145.87;100.00;54973.53;2089712;28;20508;-57
2023/11/05 03:44:15;;;;;;;0.30;0.10;;;;;;;-145.87;100.00;54973.53;2089605;28;20112;-56
2023/11/05 03:45:16;;;;;;;0.30;0.25;;;;;;;-145.87;100.00;54973.53;2089900;28;20057;-56
2023/11/05 03:46:18;;;;;;;0.35;0.20;;;;;;;-145.87;100.00;54973.53;2090173;28;20040;-56
2023/11/05 03:47:19;;;;;;;1.35;0.30;;;;;;;-145.87;100.00;54973.53;2090210;28;20049;-58
2023/11/05 03:48:20;;;;;;;0.40;0.20;;;;;;;-145.87;100.00;54973.53;2089555;28;20052;-58
2023/11/05 03:49:21;;;;;;;0.73;0.38;;;;;;;-145.87;100.00;54973.53;2089630;28;20501;-57
2023/11/05 03:50:23;;;;;;;0.50;0.20;;;;;;;-145.87;100.00;54973.53;2089865;28;20060;-59
2023/11/05 03:51:24;;;;;;;1.80;0.20;;;;;;;-145.87;100.00;54973.53;2090270;28;20048;-57
2023/11/05 03:52:27;;;;;;;1.00;0.20;;;;;;;-145.87;100.00;54973.53;2089260;28;20060;-57
2023/11/05 03:53:28;;;;;;;1.23;0.30;;;;;;;-145.87;100.00;54973.53;2089875;28;20048;-56
2023/11/05 03:54:29;;;;;;;1.77;0.57;;;;;;;-145.87;100.00;54973.53;2097868;28;20055;-57
2023/11/05 03:55:30;;;;;;;1.30;0.30;;;;;;;-145.87;100.00;54973.53;2090754;28;20071;-55
2023/11/05 03:56:32;;;;;;;2.13;0.30;;;;;;;-145.87;100.00;54973.53;2090005;28;20029;-57
2023/11/05 03:57:33;;;;;;;0.95;0.20;;;;;;;-145.87;100.00;54973.53;2090406;28;20049;-55
2023/11/05 03:58:34;;;;;;;1.67;0.20;;;;;;;-145.87;100.00;54973.53;2090293;28;20048;-57
2023/11/05 03:59:35;;;;;;;1.38;0.40;;;;;;;-145.87;100.00;54973.53;2090248;28;20045;-55
2023/11/05 04:00:36;;;;;;;1.27;0.50;;;;;;;-145.87;100.00;54973.53;2090011;28;20044;-55
2023/11/05 04:01:37;;;;;;;0.75;0.30;;;;;;;-145.87;100.00;54973.53;2089587;28;20471;-57
2023/11/05 04:02:38;;;;;;;4.38;0.40;;;;;;;-145.87;100.00;54973.53;2089579;28;20053;-55
2023/11/05 04:03:40;;;;;;;1.25;0.30;;;;;;;-145.87;100.00;54973.53;2090414;28;20056;-57
2023/11/05 04:04:44;;;;;;;1.52;0.40;;;;;;;-145.87;100.00;54973.53;2090003;28;20405;-57
2023/11/05 04:05:45;;;;;;;0.47;0.20;;;;;;;-145.87;100.00;54973.53;2090283;28;20461;-57
2023/11/05 04:06:47;;;;;;;1.27;0.60;;;;;;;-145.87;100.00;54973.53;2090246;28;20044;-57
2023/11/05 04:07:49;;;;;;;1.67;0.30;;;;;;;-145.87;100.00;54973.53;2090046;28;20053;-57
2023/11/05 04:08:50;;;;;;;1.05;0.30;;;;;;;-145.87;100.00;54973.53;2089921;28;20527;-57
2023/11/05 04:09:51;;;;;;;0.63;0.30;;;;;;;-145.87;100.00;54973.53;2089621;28;20053;-56
2023/11/05 04:10:53;;;;;;;1.58;0.30;;;;;;;-145.87;100.00;54973.53;2090461;28;20057;-57
2023/11/05 04:11:54;;;;;;;0.73;0.52;;;;;;;-145.87;100.00;54973.53;2089691;28;20052;-57
2023/11/05 04:12:55;;;;;;;1.63;0.30;;;;;;;-145.87;100.00;54973.53;2090118;28;20036;-56
2023/11/05 04:13:56;;;;;;;2.75;0.20;;;;;;;-145.87;100.00;54973.53;2089553;28;20493;-57
2023/11/05 04:14:57;;;;;;;1.75;0.20;;;;;;;-145.87;100.00;54973.53;2089229;28;20056;-56
2023/11/05 04:15:59;;;;;;;0.20;0.20;;;;;;;-145.87;100.00;54973.53;2089252;28;20064;-57
2023/11/05 04:17:00;;;;;;;0.70;0.40;;;;;;;-145.87;100.00;54973.53;2090001;28;20061;-56
2023/11/05 04:18:01;;;;;;;0.95;0.40;;;;;;;-145.87;100.00;54973.53;2090250;28;20068;-57
2023/11/05 04:19:02;;;;;;;1.15;0.20;;;;;;;-145.87;100.00;54973.53;2090027;28;20477;-57
2023/11/05 04:20:04;;;;;;;1.25;0.40;;;;;;;-145.87;100.00;54973.53;2089992;28;20044;-56
2023/11/05 04:21:05;;;;;;;1.08;0.30;;;;;;;-145.87;100.00;54973.53;2090352;28;20049;-56
2023/11/05 04:22:06;;;;;;;1.52;0.47;;;;;;;-145.87;100.00;54973.53;2090392;28;20450;-57
2023/11/05 04:23:07;;;;;;;0.30;0.20;;;;;;;-145.87;100.00;54973.53;2089792;28;20515;-56
2023/11/05 04:24:08;;;;;;;1.10;0.20;;;;;;;-145.87;100.00;54973.53;2090959;28;20053;-57
2023/11/05 04:25:10;;;;;;;1.40;0.20;;;;;;;-145.87;100.00;54973.53;2091381;28;20060;-56
2023/11/05 04:26:13;;;;;;;0.65;0.22;;;;;;;-145.87;100.00;54973.53;2091986;28;20056;-56
2023/11/05 04:27:14;;;;;;;0.88;0.35;;;;;;;-145.87;100.00;54973.53;2091776;28;20048;-57
2023/11/05 04:28:16;;;;;;;0.20;0.10;;;;;;;-145.87;100.00;54973.53;2091862;28;20037;-57
2023/11/05 04:29:17;;;;;;;0.85;0.25;;;;;;;-145.87;100.00;54973.53;2091693;28;20481;-57
2023/11/05 04:30:18;;;;;;;1.08;0.22;;;;;;;-145.87;100.00;54973.53;2092037;28;20064;-56
2023/11/05 04:31:19;;;;;;;1.00;0.40;;;;;;;-145.87;100.00;54973.53;2091300;28;20071;-57
2023/11/05 04:32:20;;;;;;;2.38;0.40;;;;;;;-145.87;100.00;54973.53;2092029;28;20057;-57
2023/11/05 04:33:21;;;;;;;1.88;0.30;;;;;;;-145.87;100.00;54973.53;2091790;28;20056;-57
2023/11/05 04:34:23;;;;;;;0.57;0.30;;;;;;;-145.87;100.00;54973.53;2091576;28;20412;-57
2023/11/05 04:35:24;;;;;;;1.38;0.30;;;;;;;-145.87;100.00;54973.53;2091733;28;20044;-56
2023/11/05 04:36:25;;;;;;;1.27;0.38;;;;;;;-145.87;100.00;54973.53;2091622;28;20053;-57
2023/11/05 04:37:26;;;;;;;0.45;0.20;;;;;;;-145.87;100.00;54973.53;2091845;28;20049;-58
2023/11/05 04:38:28;;;;;;;2.70;0.30;;;;;;;-145.87;100.00;54973.53;2091296;28;20393;-56
2023/11/05 04:39:29;;;;;;;0.98;0.30;;;;;;;-145.87;100.00;54973.53;2091582;28;20057;-57